KMIA

Miami International Airport

Miami, Florida, USA
METAR KMIA 171353Z VRB03KT 10SM CLR 17/13 A3016 RMK AO2 SLP213 T01670128
Observed Flight Rules
Dec-17 @ 13:53 UTC (37 minutes ago) Visual Flight Rules
Wind Visibility Clouds
Variable at 3 knots 10 miles
  • Clear skies
Temperatures Readings
Current 17°C / 63°F
Dewpoint 13°C / 55°F
Humidity 77%
Altimeter 30.16" Hg
Pressure 1021.3 hPa
Elevation 3
METAR KMIA 171353Z VRB03KT 10SM CLR 17/13 A3016 RMK AO2 SLP213 T01670128
Observed Flight Rules
Dec-17 @ 13:53 UTC
(37 minutes ago)
VFR
Wind Visibility
Variable at 3 knots 10 miles
Clouds
  • Clear skies
Temperature Dewpoint
17°C / 63°F 13°C / 55°F
Humidity Altimeter Pressure
77% 30.16" Hg 1021.3 hPa